sensor_id;sensor_type;location;lat;lon;timestamp;P1;durP1;ratioP1;P2;durP2;ratioP2
24517;SDS011;12678;51.336;12.406;2023-07-16T00:02:12;7.40;;;3.55;;
24517;SDS011;12678;51.336;12.406;2023-07-16T00:04:38;7.15;;;2.65;;
24517;SDS011;12678;51.336;12.406;2023-07-16T00:07:03;8.95;;;3.50;;
24517;SDS011;12678;51.336;12.406;2023-07-16T00:09:30;6.93;;;3.30;;
24517;SDS011;12678;51.336;12.406;2023-07-16T00:11:56;6.22;;;2.80;;
24517;SDS011;12678;51.336;12.406;2023-07-16T00:14:22;4.25;;;2.92;;
24517;SDS011;12678;51.336;12.406;2023-07-16T00:16:47;4.07;;;2.60;;
24517;SDS011;12678;51.336;12.406;2023-07-16T00:19:14;5.65;;;2.55;;
24517;SDS011;12678;51.336;12.406;2023-07-16T00:21:39;4.68;;;2.28;;
24517;SDS011;12678;51.336;12.406;2023-07-16T00:24:05;2.95;;;1.98;;
24517;SDS011;12678;51.336;12.406;2023-07-16T00:26:31;4.57;;;1.98;;
24517;SDS011;12678;51.336;12.406;2023-07-16T00:28:56;3.45;;;2.25;;
24517;SDS011;12678;51.336;12.406;2023-07-16T00:31:22;6.43;;;2.30;;
24517;SDS011;12678;51.336;12.406;2023-07-16T00:33:48;4.25;;;2.00;;
24517;SDS011;12678;51.336;12.406;2023-07-16T00:36:13;8.30;;;2.17;;
24517;SDS011;12678;51.336;12.406;2023-07-16T00:38:39;5.88;;;1.98;;
24517;SDS011;12678;51.336;12.406;2023-07-16T00:41:07;5.07;;;2.45;;
24517;SDS011;12678;51.336;12.406;2023-07-16T00:43:33;6.15;;;2.55;;
24517;SDS011;12678;51.336;12.406;2023-07-16T00:45:59;3.88;;;2.30;;
24517;SDS011;12678;51.336;12.406;2023-07-16T00:48:24;5.65;;;2.20;;
24517;SDS011;12678;51.336;12.406;2023-07-16T00:50:50;3.17;;;2.17;;
24517;SDS011;12678;51.336;12.406;2023-07-16T00:53:17;5.97;;;2.30;;
24517;SDS011;12678;51.336;12.406;2023-07-16T00:55:44;3.42;;;1.80;;
24517;SDS011;12678;51.336;12.406;2023-07-16T00:58:10;3.45;;;2.33;;
24517;SDS011;12678;51.336;12.406;2023-07-16T01:00:36;6.03;;;2.72;;
24517;SDS011;12678;51.336;12.406;2023-07-16T01:03:04;6.20;;;2.30;;
24517;SDS011;12678;51.336;12.406;2023-07-16T01:05:33;3.00;;;2.22;;
24517;SDS011;12678;51.336;12.406;2023-07-16T01:08:05;6.07;;;2.08;;
24517;SDS011;12678;51.336;12.406;2023-07-16T01:10:34;4.97;;;2.30;;
24517;SDS011;12678;51.336;12.406;2023-07-16T01:13:00;3.35;;;2.25;;
24517;SDS011;12678;51.336;12.406;2023-07-16T01:15:26;5.07;;;2.70;;
24517;SDS011;12678;51.336;12.406;2023-07-16T01:17:52;5.82;;;1.98;;
24517;SDS011;12678;51.336;12.406;2023-07-16T01:20:18;5.13;;;2.35;;
24517;SDS011;12678;51.336;12.406;2023-07-16T01:25:36;8.25;;;2.03;;
24517;SDS011;12678;51.336;12.406;2023-07-16T01:31:16;6.13;;;2.60;;
24517;SDS011;12678;51.336;12.406;2023-07-16T01:33:43;6.60;;;2.38;;
24517;SDS011;12678;51.336;12.406;2023-07-16T01:36:10;7.78;;;2.45;;
24517;SDS011;12678;51.336;12.406;2023-07-16T01:38:36;3.60;;;2.35;;
24517;SDS011;12678;51.336;12.406;2023-07-16T01:41:02;4.78;;;2.33;;
24517;SDS011;12678;51.336;12.406;2023-07-16T01:43:28;7.05;;;2.67;;
24517;SDS011;12678;51.336;12.406;2023-07-16T01:45:53;4.22;;;1.95;;
24517;SDS011;12678;51.336;12.406;2023-07-16T01:50:51;3.53;;;2.13;;
24517;SDS011;12678;51.336;12.406;2023-07-16T01:53:16;4.60;;;2.22;;
24517;SDS011;12678;51.336;12.406;2023-07-16T01:55:42;5.43;;;2.20;;
24517;SDS011;12678;51.336;12.406;2023-07-16T01:58:07;7.93;;;1.88;;
24517;SDS011;12678;51.336;12.406;2023-07-16T02:00:34;3.22;;;1.90;;
24517;SDS011;12678;51.336;12.406;2023-07-16T02:03:00;7.38;;;2.10;;
24517;SDS011;12678;51.336;12.406;2023-07-16T02:05:26;3.05;;;2.15;;
24517;SDS011;12678;51.336;12.406;2023-07-16T02:07:52;2.80;;;1.80;;
24517;SDS011;12678;51.336;12.406;2023-07-16T02:10:17;4.15;;;2.35;;
24517;SDS011;12678;51.336;12.406;2023-07-16T02:12:43;2.67;;;1.90;;
24517;SDS011;12678;51.336;12.406;2023-07-16T02:15:09;6.38;;;2.25;;
24517;SDS011;12678;51.336;12.406;2023-07-16T02:17:34;3.35;;;2.30;;
24517;SDS011;12678;51.336;12.406;2023-07-16T02:20:00;4.70;;;2.85;;
24517;SDS011;12678;51.336;12.406;2023-07-16T02:22:26;6.13;;;2.65;;
24517;SDS011;12678;51.336;12.406;2023-07-16T02:24:52;4.18;;;2.60;;
24517;SDS011;12678;51.336;12.406;2023-07-16T02:27:18;8.20;;;2.72;;
24517;SDS011;12678;51.336;12.406;2023-07-16T02:29:43;5.25;;;2.33;;
24517;SDS011;12678;51.336;12.406;2023-07-16T02:32:09;5.53;;;2.88;;
24517;SDS011;12678;51.336;12.406;2023-07-16T02:34:34;6.30;;;3.05;;
24517;SDS011;12678;51.336;12.406;2023-07-16T02:37:00;4.85;;;2.78;;
24517;SDS011;12678;51.336;12.406;2023-07-16T02:39:26;5.82;;;2.80;;
24517;SDS011;12678;51.336;12.406;2023-07-16T02:41:51;3.80;;;2.60;;
24517;SDS011;12678;51.336;12.406;2023-07-16T02:44:17;5.25;;;3.30;;
24517;SDS011;12678;51.336;12.406;2023-07-16T02:46:43;3.83;;;2.92;;
24517;SDS011;12678;51.336;12.406;2023-07-16T02:49:09;5.65;;;2.65;;
24517;SDS011;12678;51.336;12.406;2023-07-16T02:51:34;4.20;;;2.30;;
24517;SDS011;12678;51.336;12.406;2023-07-16T02:54:00;9.27;;;2.63;;
24517;SDS011;12678;51.336;12.406;2023-07-16T02:56:26;3.47;;;2.45;;
24517;SDS011;12678;51.336;12.406;2023-07-16T02:58:51;5.50;;;2.25;;
24517;SDS011;12678;51.336;12.406;2023-07-16T03:01:17;10.75;;;2.63;;
24517;SDS011;12678;51.336;12.406;2023-07-16T03:03:43;10.27;;;3.25;;
24517;SDS011;12678;51.336;12.406;2023-07-16T03:06:08;8.75;;;2.42;;
24517;SDS011;12678;51.336;12.406;2023-07-16T03:08:34;3.80;;;2.10;;
24517;SDS011;12678;51.336;12.406;2023-07-16T03:11:00;4.68;;;2.80;;
24517;SDS011;12678;51.336;12.406;2023-07-16T03:13:25;6.20;;;2.33;;
24517;SDS011;12678;51.336;12.406;2023-07-16T03:15:51;5.70;;;2.90;;
24517;SDS011;12678;51.336;12.406;2023-07-16T03:18:18;2.25;;;2.05;;
24517;SDS011;12678;51.336;12.406;2023-07-16T03:20:44;6.13;;;2.58;;
24517;SDS011;12678;51.336;12.406;2023-07-16T03:23:10;8.52;;;2.60;;
24517;SDS011;12678;51.336;12.406;2023-07-16T03:25:35;5.95;;;2.40;;
24517;SDS011;12678;51.336;12.406;2023-07-16T03:28:01;3.70;;;2.45;;
24517;SDS011;12678;51.336;12.406;2023-07-16T03:30:27;6.15;;;2.47;;
24517;SDS011;12678;51.336;12.406;2023-07-16T03:32:53;2.65;;;2.05;;
24517;SDS011;12678;51.336;12.406;2023-07-16T03:35:18;6.55;;;2.58;;
24517;SDS011;12678;51.336;12.406;2023-07-16T03:37:44;4.13;;;2.25;;
24517;SDS011;12678;51.336;12.406;2023-07-16T03:40:13;3.97;;;2.28;;
24517;SDS011;12678;51.336;12.406;2023-07-16T03:42:40;5.55;;;2.20;;
24517;SDS011;12678;51.336;12.406;2023-07-16T03:45:06;3.85;;;2.40;;
24517;SDS011;12678;51.336;12.406;2023-07-16T03:47:32;3.22;;;2.20;;
24517;SDS011;12678;51.336;12.406;2023-07-16T03:49:58;5.63;;;2.13;;
24517;SDS011;12678;51.336;12.406;2023-07-16T03:52:23;5.05;;;2.08;;
24517;SDS011;12678;51.336;12.406;2023-07-16T03:54:49;7.13;;;2.40;;
24517;SDS011;12678;51.336;12.406;2023-07-16T03:57:16;4.95;;;2.80;;
24517;SDS011;12678;51.336;12.406;2023-07-16T03:59:42;5.55;;;2.25;;
24517;SDS011;12678;51.336;12.406;2023-07-16T04:02:07;3.30;;;2.30;;
24517;SDS011;12678;51.336;12.406;2023-07-16T04:04:33;2.55;;;2.17;;
24517;SDS011;12678;51.336;12.406;2023-07-16T04:06:59;4.60;;;2.30;;
24517;SDS011;12678;51.336;12.406;2023-07-16T04:09:24;5.38;;;2.10;;
24517;SDS011;12678;51.336;12.406;2023-07-16T04:11:50;4.50;;;2.65;;
24517;SDS011;12678;51.336;12.406;2023-07-16T04:14:16;3.97;;;2.35;;
24517;SDS011;12678;51.336;12.406;2023-07-16T04:16:41;4.25;;;2.38;;
24517;SDS011;12678;51.336;12.406;2023-07-16T04:19:08;3.78;;;2.25;;
24517;SDS011;12678;51.336;12.406;2023-07-16T04:21:34;2.65;;;2.03;;
24517;SDS011;12678;51.336;12.406;2023-07-16T04:24:00;2.97;;;2.30;;
24517;SDS011;12678;51.336;12.406;2023-07-16T04:26:27;3.55;;;2.42;;
24517;SDS011;12678;51.336;12.406;2023-07-16T04:28:52;5.03;;;2.15;;
24517;SDS011;12678;51.336;12.406;2023-07-16T04:31:18;4.32;;;2.20;;
24517;SDS011;12678;51.336;12.406;2023-07-16T04:33:43;4.65;;;2.30;;
24517;SDS011;12678;51.336;12.406;2023-07-16T04:36:09;5.47;;;2.00;;
24517;SDS011;12678;51.336;12.406;2023-07-16T04:38:34;3.63;;;2.00;;
24517;SDS011;12678;51.336;12.406;2023-07-16T04:41:00;6.60;;;2.63;;
24517;SDS011;12678;51.336;12.406;2023-07-16T04:43:25;4.32;;;1.95;;
24517;SDS011;12678;51.336;12.406;2023-07-16T04:45:51;3.13;;;2.08;;
24517;SDS011;12678;51.336;12.406;2023-07-16T04:48:17;3.33;;;2.20;;
24517;SDS011;12678;51.336;12.406;2023-07-16T04:50:42;8.88;;;2.35;;
24517;SDS011;12678;51.336;12.406;2023-07-16T04:53:08;4.43;;;1.65;;
24517;SDS011;12678;51.336;12.406;2023-07-16T04:55:37;2.65;;;1.73;;
24517;SDS011;12678;51.336;12.406;2023-07-16T04:58:04;4.68;;;2.22;;
24517;SDS011;12678;51.336;12.406;2023-07-16T05:00:31;3.58;;;1.90;;
24517;SDS011;12678;51.336;12.406;2023-07-16T05:02:58;5.18;;;2.42;;
24517;SDS011;12678;51.336;12.406;2023-07-16T05:05:23;5.55;;;2.00;;
24517;SDS011;12678;51.336;12.406;2023-07-16T05:07:49;2.03;;;1.70;;
24517;SDS011;12678;51.336;12.406;2023-07-16T05:10:15;5.28;;;1.80;;
24517;SDS011;12678;51.336;12.406;2023-07-16T05:12:40;5.38;;;2.03;;
24517;SDS011;12678;51.336;12.406;2023-07-16T05:15:06;3.38;;;1.50;;
24517;SDS011;12678;51.336;12.406;2023-07-16T05:17:32;3.15;;;1.75;;
24517;SDS011;12678;51.336;12.406;2023-07-16T05:19:58;2.33;;;1.58;;
24517;SDS011;12678;51.336;12.406;2023-07-16T05:22:23;1.58;;;1.20;;
24517;SDS011;12678;51.336;12.406;2023-07-16T05:24:49;4.10;;;1.20;;
24517;SDS011;12678;51.336;12.406;2023-07-16T05:27:15;2.00;;;1.30;;
24517;SDS011;12678;51.336;12.406;2023-07-16T05:29:41;2.58;;;1.25;;
24517;SDS011;12678;51.336;12.406;2023-07-16T05:32:06;1.40;;;1.27;;
24517;SDS011;12678;51.336;12.406;2023-07-16T05:34:33;7.13;;;1.40;;
24517;SDS011;12678;51.336;12.406;2023-07-16T05:36:58;1.20;;;1.10;;
24517;SDS011;12678;51.336;12.406;2023-07-16T05:39:24;3.58;;;1.45;;
24517;SDS011;12678;51.336;12.406;2023-07-16T05:41:50;1.40;;;1.02;;
24517;SDS011;12678;51.336;12.406;2023-07-16T05:44:16;1.33;;;0.90;;
24517;SDS011;12678;51.336;12.406;2023-07-16T05:46:41;2.97;;;1.50;;
24517;SDS011;12678;51.336;12.406;2023-07-16T05:49:07;1.25;;;1.00;;
24517;SDS011;12678;51.336;12.406;2023-07-16T05:51:32;3.08;;;1.08;;
24517;SDS011;12678;51.336;12.406;2023-07-16T05:53:58;5.47;;;1.30;;
24517;SDS011;12678;51.336;12.406;2023-07-16T05:56:24;1.50;;;1.20;;
24517;SDS011;12678;51.336;12.406;2023-07-16T05:58:49;1.13;;;1.02;;
24517;SDS011;12678;51.336;12.406;2023-07-16T06:01:15;1.80;;;1.40;;
24517;SDS011;12678;51.336;12.406;2023-07-16T06:03:40;1.13;;;1.02;;
24517;SDS011;12678;51.336;12.406;2023-07-16T06:06:08;1.55;;;1.33;;
24517;SDS011;12678;51.336;12.406;2023-07-16T06:08:34;2.08;;;1.13;;
24517;SDS011;12678;51.336;12.406;2023-07-16T06:11:00;2.42;;;1.40;;
24517;SDS011;12678;51.336;12.406;2023-07-16T06:13:26;2.25;;;1.20;;
24517;SDS011;12678;51.336;12.406;2023-07-16T06:15:51;1.10;;;1.00;;
24517;SDS011;12678;51.336;12.406;2023-07-16T06:18:17;1.42;;;1.20;;
24517;SDS011;12678;51.336;12.406;2023-07-16T06:20:43;2.17;;;1.55;;
24517;SDS011;12678;51.336;12.406;2023-07-16T06:23:09;1.60;;;1.50;;
24517;SDS011;12678;51.336;12.406;2023-07-16T06:25:36;2.15;;;1.02;;
24517;SDS011;12678;51.336;12.406;2023-07-16T06:28:02;2.45;;;1.48;;
24517;SDS011;12678;51.336;12.406;2023-07-16T06:30:29;4.78;;;1.58;;
24517;SDS011;12678;51.336;12.406;2023-07-16T06:32:57;2.25;;;1.40;;
24517;SDS011;12678;51.336;12.406;2023-07-16T06:35:22;1.83;;;1.30;;
24517;SDS011;12678;51.336;12.406;2023-07-16T06:37:48;2.53;;;1.13;;
24517;SDS011;12678;51.336;12.406;2023-07-16T06:40:14;1.67;;;1.20;;
24517;SDS011;12678;51.336;12.406;2023-07-16T06:42:39;3.03;;;1.13;;
24517;SDS011;12678;51.336;12.406;2023-07-16T06:45:05;2.58;;;1.23;;
24517;SDS011;12678;51.336;12.406;2023-07-16T06:47:31;3.25;;;1.45;;
24517;SDS011;12678;51.336;12.406;2023-07-16T06:49:57;3.22;;;1.42;;
24517;SDS011;12678;51.336;12.406;2023-07-16T06:52:23;2.60;;;1.15;;
24517;SDS011;12678;51.336;12.406;2023-07-16T06:54:55;1.65;;;1.10;;
24517;SDS011;12678;51.336;12.406;2023-07-16T06:57:22;1.77;;;1.10;;
24517;SDS011;12678;51.336;12.406;2023-07-16T06:59:48;1.95;;;1.05;;
24517;SDS011;12678;51.336;12.406;2023-07-16T07:02:15;3.67;;;1.25;;
24517;SDS011;12678;51.336;12.406;2023-07-16T07:04:41;1.55;;;1.20;;
24517;SDS011;12678;51.336;12.406;2023-07-16T07:07:07;3.15;;;1.40;;
24517;SDS011;12678;51.336;12.406;2023-07-16T07:09:33;2.67;;;1.15;;
24517;SDS011;12678;51.336;12.406;2023-07-16T07:11:59;2.50;;;1.20;;
24517;SDS011;12678;51.336;12.406;2023-07-16T07:14:25;2.50;;;1.02;;
24517;SDS011;12678;51.336;12.406;2023-07-16T07:16:50;1.65;;;0.90;;
24517;SDS011;12678;51.336;12.406;2023-07-16T07:19:16;4.03;;;1.33;;
24517;SDS011;12678;51.336;12.406;2023-07-16T07:21:41;2.25;;;1.40;;
24517;SDS011;12678;51.336;12.406;2023-07-16T07:24:07;2.13;;;1.10;;
24517;SDS011;12678;51.336;12.406;2023-07-16T07:26:33;4.20;;;1.33;;
24517;SDS011;12678;51.336;12.406;2023-07-16T07:28:58;3.30;;;1.10;;
24517;SDS011;12678;51.336;12.406;2023-07-16T07:31:24;5.30;;;1.40;;
24517;SDS011;12678;51.336;12.406;2023-07-16T07:33:50;2.60;;;1.63;;
24517;SDS011;12678;51.336;12.406;2023-07-16T07:36:15;4.07;;;1.30;;
24517;SDS011;12678;51.336;12.406;2023-07-16T07:38:41;1.08;;;0.88;;
24517;SDS011;12678;51.336;12.406;2023-07-16T07:41:07;1.83;;;1.30;;
24517;SDS011;12678;51.336;12.406;2023-07-16T07:43:32;2.85;;;0.93;;
24517;SDS011;12678;51.336;12.406;2023-07-16T07:45:58;1.33;;;1.20;;
24517;SDS011;12678;51.336;12.406;2023-07-16T07:48:24;2.90;;;1.20;;
24517;SDS011;12678;51.336;12.406;2023-07-16T07:50:49;3.95;;;1.10;;
24517;SDS011;12678;51.336;12.406;2023-07-16T07:53:15;6.47;;;1.42;;
24517;SDS011;12678;51.336;12.406;2023-07-16T07:55:43;2.83;;;1.48;;
24517;SDS011;12678;51.336;12.406;2023-07-16T07:58:10;1.20;;;1.10;;
24517;SDS011;12678;51.336;12.406;2023-07-16T08:00:36;2.55;;;1.50;;
24517;SDS011;12678;51.336;12.406;2023-07-16T08:03:02;1.85;;;1.15;;
24517;SDS011;12678;51.336;12.406;2023-07-16T08:05:28;2.03;;;0.95;;
24517;SDS011;12678;51.336;12.406;2023-07-16T08:07:54;2.58;;;1.10;;
24517;SDS011;12678;51.336;12.406;2023-07-16T08:10:20;1.83;;;1.08;;
24517;SDS011;12678;51.336;12.406;2023-07-16T08:12:46;3.75;;;1.10;;
24517;SDS011;12678;51.336;12.406;2023-07-16T08:15:12;1.80;;;1.10;;
24517;SDS011;12678;51.336;12.406;2023-07-16T08:17:41;3.00;;;1.50;;
24517;SDS011;12678;51.336;12.406;2023-07-16T08:20:09;3.67;;;1.15;;
24517;SDS011;12678;51.336;12.406;2023-07-16T08:22:35;2.80;;;1.20;;
24517;SDS011;12678;51.336;12.406;2023-07-16T08:25:01;5.97;;;1.48;;
24517;SDS011;12678;51.336;12.406;2023-07-16T08:27:28;0.90;;;0.82;;
24517;SDS011;12678;51.336;12.406;2023-07-16T08:29:54;2.83;;;1.02;;
24517;SDS011;12678;51.336;12.406;2023-07-16T08:32:19;3.08;;;0.80;;
24517;SDS011;12678;51.336;12.406;2023-07-16T08:34:46;2.58;;;1.48;;
24517;SDS011;12678;51.336;12.406;2023-07-16T08:37:11;3.72;;;1.38;;
24517;SDS011;12678;51.336;12.406;2023-07-16T08:39:37;3.88;;;1.10;;
24517;SDS011;12678;51.336;12.406;2023-07-16T08:42:03;3.60;;;1.33;;
24517;SDS011;12678;51.336;12.406;2023-07-16T08:44:29;2.42;;;1.00;;
24517;SDS011;12678;51.336;12.406;2023-07-16T08:46:55;2.25;;;1.48;;
24517;SDS011;12678;51.336;12.406;2023-07-16T08:49:22;2.30;;;0.88;;
24517;SDS011;12678;51.336;12.406;2023-07-16T08:51:48;3.88;;;1.40;;
24517;SDS011;12678;51.336;12.406;2023-07-16T08:54:14;2.05;;;1.15;;
24517;SDS011;12678;51.336;12.406;2023-07-16T08:56:42;2.33;;;1.10;;
24517;SDS011;12678;51.336;12.406;2023-07-16T08:59:13;1.88;;;1.42;;
24517;SDS011;12678;51.336;12.406;2023-07-16T09:01:40;1.60;;;0.98;;
24517;SDS011;12678;51.336;12.406;2023-07-16T09:04:05;8.18;;;1.27;;
24517;SDS011;12678;51.336;12.406;2023-07-16T09:06:31;3.60;;;0.98;;
24517;SDS011;12678;51.336;12.406;2023-07-16T09:08:57;0.90;;;0.90;;
24517;SDS011;12678;51.336;12.406;2023-07-16T09:11:23;1.05;;;0.75;;
24517;SDS011;12678;51.336;12.406;2023-07-16T09:13:49;2.78;;;1.05;;
24517;SDS011;12678;51.336;12.406;2023-07-16T09:16:15;2.03;;;1.10;;
24517;SDS011;12678;51.336;12.406;2023-07-16T09:18:43;2.47;;;1.40;;
24517;SDS011;12678;51.336;12.406;2023-07-16T09:21:10;4.35;;;1.65;;
24517;SDS011;12678;51.336;12.406;2023-07-16T09:23:36;3.33;;;1.13;;
24517;SDS011;12678;51.336;12.406;2023-07-16T09:26:02;4.70;;;1.45;;
24517;SDS011;12678;51.336;12.406;2023-07-16T09:28:29;1.88;;;1.20;;
24517;SDS011;12678;51.336;12.406;2023-07-16T09:30:55;1.55;;;1.10;;
24517;SDS011;12678;51.336;12.406;2023-07-16T09:33:28;3.53;;;1.55;;
24517;SDS011;12678;51.336;12.406;2023-07-16T09:35:53;3.15;;;1.30;;
24517;SDS011;12678;51.336;12.406;2023-07-16T09:38:19;1.65;;;1.13;;
24517;SDS011;12678;51.336;12.406;2023-07-16T09:40:46;3.88;;;1.05;;
24517;SDS011;12678;51.336;12.406;2023-07-16T09:43:12;2.22;;;1.35;;
24517;SDS011;12678;51.336;12.406;2023-07-16T09:45:42;3.22;;;1.08;;
24517;SDS011;12678;51.336;12.406;2023-07-16T09:48:08;2.80;;;0.98;;
24517;SDS011;12678;51.336;12.406;2023-07-16T09:50:34;5.15;;;1.80;;
24517;SDS011;12678;51.336;12.406;2023-07-16T09:53:00;3.13;;;1.20;;
24517;SDS011;12678;51.336;12.406;2023-07-16T09:55:30;2.30;;;0.95;;
24517;SDS011;12678;51.336;12.406;2023-07-16T09:57:59;4.50;;;1.00;;
24517;SDS011;12678;51.336;12.406;2023-07-16T10:00:26;2.90;;;1.50;;
24517;SDS011;12678;51.336;12.406;2023-07-16T10:02:53;3.75;;;1.45;;
24517;SDS011;12678;51.336;12.406;2023-07-16T10:07:50;2.13;;;1.27;;
24517;SDS011;12678;51.336;12.406;2023-07-16T10:10:17;6.43;;;1.35;;
24517;SDS011;12678;51.336;12.406;2023-07-16T10:12:54;5.60;;;1.42;;
24517;SDS011;12678;51.336;12.406;2023-07-16T10:15:27;2.13;;;1.27;;
24517;SDS011;12678;51.336;12.406;2023-07-16T10:17:54;3.38;;;1.50;;
24517;SDS011;12678;51.336;12.406;2023-07-16T10:20:31;2.70;;;1.27;;
24517;SDS011;12678;51.336;12.406;2023-07-16T10:23:14;4.53;;;1.17;;
24517;SDS011;12678;51.336;12.406;2023-07-16T10:26:00;2.35;;;1.25;;
24517;SDS011;12678;51.336;12.406;2023-07-16T10:28:30;1.52;;;0.93;;
24517;SDS011;12678;51.336;12.406;2023-07-16T10:30:56;2.30;;;1.13;;
24517;SDS011;12678;51.336;12.406;2023-07-16T10:33:23;2.08;;;1.27;;
24517;SDS011;12678;51.336;12.406;2023-07-16T10:35:48;5.78;;;1.42;;
24517;SDS011;12678;51.336;12.406;2023-07-16T10:38:14;3.13;;;1.15;;
24517;SDS011;12678;51.336;12.406;2023-07-16T10:40:43;1.95;;;1.30;;
24517;SDS011;12678;51.336;12.406;2023-07-16T10:43:10;4.90;;;1.48;;
24517;SDS011;12678;51.336;12.406;2023-07-16T10:45:37;1.83;;;1.15;;
24517;SDS011;12678;51.336;12.406;2023-07-16T10:48:02;3.40;;;1.25;;
24517;SDS011;12678;51.336;12.406;2023-07-16T10:50:28;4.55;;;1.38;;
24517;SDS011;12678;51.336;12.406;2023-07-16T10:52:56;2.83;;;1.70;;
24517;SDS011;12678;51.336;12.406;2023-07-16T10:55:22;4.95;;;1.23;;
24517;SDS011;12678;51.336;12.406;2023-07-16T10:57:49;3.63;;;0.93;;
24517;SDS011;12678;51.336;12.406;2023-07-16T11:00:16;3.95;;;1.90;;
24517;SDS011;12678;51.336;12.406;2023-07-16T11:02:42;2.88;;;1.70;;
24517;SDS011;12678;51.336;12.406;2023-07-16T11:05:12;5.75;;;1.50;;
24517;SDS011;12678;51.336;12.406;2023-07-16T11:07:42;2.30;;;1.30;;
24517;SDS011;12678;51.336;12.406;2023-07-16T11:10:09;3.58;;;1.40;;
24517;SDS011;12678;51.336;12.406;2023-07-16T11:12:35;1.83;;;1.48;;
24517;SDS011;12678;51.336;12.406;2023-07-16T11:15:01;1.92;;;1.02;;
24517;SDS011;12678;51.336;12.406;2023-07-16T11:17:26;2.80;;;1.50;;
24517;SDS011;12678;51.336;12.406;2023-07-16T11:19:53;3.05;;;1.30;;
24517;SDS011;12678;51.336;12.406;2023-07-16T11:22:19;2.97;;;1.33;;
24517;SDS011;12678;51.336;12.406;2023-07-16T11:24:52;3.55;;;1.67;;
24517;SDS011;12678;51.336;12.406;2023-07-16T11:27:26;2.00;;;1.45;;
24517;SDS011;12678;51.336;12.406;2023-07-16T11:29:53;2.67;;;1.45;;
24517;SDS011;12678;51.336;12.406;2023-07-16T11:32:32;3.63;;;1.45;;
24517;SDS011;12678;51.336;12.406;2023-07-16T11:35:01;3.15;;;1.60;;
24517;SDS011;12678;51.336;12.406;2023-07-16T11:37:31;2.63;;;1.13;;
24517;SDS011;12678;51.336;12.406;2023-07-16T11:44:55;2.47;;;1.55;;
24517;SDS011;12678;51.336;12.406;2023-07-16T11:47:21;2.33;;;0.98;;
24517;SDS011;12678;51.336;12.406;2023-07-16T11:49:48;3.63;;;1.50;;
24517;SDS011;12678;51.336;12.406;2023-07-16T11:52:14;5.05;;;1.30;;
24517;SDS011;12678;51.336;12.406;2023-07-16T11:54:43;9.43;;;1.95;;
24517;SDS011;12678;51.336;12.406;2023-07-16T11:57:09;3.83;;;1.30;;
24517;SDS011;12678;51.336;12.406;2023-07-16T11:59:34;2.38;;;1.35;;
24517;SDS011;12678;51.336;12.406;2023-07-16T12:02:00;2.05;;;1.40;;
24517;SDS011;12678;51.336;12.406;2023-07-16T12:04:26;4.55;;;1.52;;
24517;SDS011;12678;51.336;12.406;2023-07-16T12:06:52;3.40;;;1.70;;
24517;SDS011;12678;51.336;12.406;2023-07-16T12:09:17;3.20;;;1.50;;
24517;SDS011;12678;51.336;12.406;2023-07-16T12:11:43;4.45;;;1.50;;
24517;SDS011;12678;51.336;12.406;2023-07-16T12:14:09;6.30;;;1.80;;
24517;SDS011;12678;51.336;12.406;2023-07-16T12:16:37;2.85;;;1.70;;
24517;SDS011;12678;51.336;12.406;2023-07-16T12:19:02;2.47;;;1.15;;
24517;SDS011;12678;51.336;12.406;2023-07-16T12:21:28;4.78;;;1.90;;
24517;SDS011;12678;51.336;12.406;2023-07-16T12:23:53;3.35;;;1.90;;
24517;SDS011;12678;51.336;12.406;2023-07-16T12:26:19;4.03;;;1.60;;
24517;SDS011;12678;51.336;12.406;2023-07-16T12:28:45;2.45;;;1.17;;
24517;SDS011;12678;51.336;12.406;2023-07-16T12:31:11;1.90;;;1.60;;
24517;SDS011;12678;51.336;12.406;2023-07-16T12:33:36;3.70;;;1.52;;
24517;SDS011;12678;51.336;12.406;2023-07-16T12:36:02;4.65;;;1.65;;
24517;SDS011;12678;51.336;12.406;2023-07-16T12:38:28;4.13;;;1.50;;
24517;SDS011;12678;51.336;12.406;2023-07-16T12:40:54;3.65;;;1.65;;
24517;SDS011;12678;51.336;12.406;2023-07-16T12:43:19;4.93;;;1.58;;
24517;SDS011;12678;51.336;12.406;2023-07-16T12:45:45;4.90;;;1.38;;
24517;SDS011;12678;51.336;12.406;2023-07-16T12:48:11;3.97;;;1.80;;
24517;SDS011;12678;51.336;12.406;2023-07-16T12:50:36;4.35;;;2.08;;
24517;SDS011;12678;51.336;12.406;2023-07-16T12:53:02;2.05;;;1.08;;
24517;SDS011;12678;51.336;12.406;2023-07-16T12:55:28;4.97;;;1.90;;
24517;SDS011;12678;51.336;12.406;2023-07-16T12:57:56;14.70;;;2.10;;
24517;SDS011;12678;51.336;12.406;2023-07-16T13:00:21;2.25;;;1.67;;
24517;SDS011;12678;51.336;12.406;2023-07-16T13:02:47;3.42;;;1.77;;
24517;SDS011;12678;51.336;12.406;2023-07-16T13:05:12;3.83;;;1.60;;
24517;SDS011;12678;51.336;12.406;2023-07-16T13:07:38;5.95;;;2.05;;
24517;SDS011;12678;51.336;12.406;2023-07-16T13:10:04;6.93;;;2.63;;
24517;SDS011;12678;51.336;12.406;2023-07-16T13:12:31;4.95;;;1.77;;
24517;SDS011;12678;51.336;12.406;2023-07-16T13:14:57;4.32;;;1.77;;
24517;SDS011;12678;51.336;12.406;2023-07-16T13:17:22;3.85;;;1.95;;
24517;SDS011;12678;51.336;12.406;2023-07-16T13:19:48;3.30;;;1.60;;
24517;SDS011;12678;51.336;12.406;2023-07-16T13:22:13;5.25;;;2.03;;
24517;SDS011;12678;51.336;12.406;2023-07-16T13:24:39;3.47;;;1.70;;
24517;SDS011;12678;51.336;12.406;2023-07-16T13:27:05;2.55;;;1.65;;
24517;SDS011;12678;51.336;12.406;2023-07-16T13:29:31;4.80;;;1.63;;
24517;SDS011;12678;51.336;12.406;2023-07-16T13:31:56;3.33;;;1.83;;
24517;SDS011;12678;51.336;12.406;2023-07-16T13:34:22;2.97;;;1.88;;
24517;SDS011;12678;51.336;12.406;2023-07-16T13:36:47;4.93;;;1.95;;
24517;SDS011;12678;51.336;12.406;2023-07-16T13:39:13;4.20;;;2.05;;
24517;SDS011;12678;51.336;12.406;2023-07-16T13:41:39;3.85;;;1.80;;
24517;SDS011;12678;51.336;12.406;2023-07-16T13:44:05;4.22;;;1.80;;
24517;SDS011;12678;51.336;12.406;2023-07-16T13:46:30;5.55;;;2.42;;
24517;SDS011;12678;51.336;12.406;2023-07-16T13:48:56;2.65;;;1.60;;
24517;SDS011;12678;51.336;12.406;2023-07-16T13:51:22;4.90;;;2.05;;
24517;SDS011;12678;51.336;12.406;2023-07-16T13:53:48;3.88;;;2.25;;
24517;SDS011;12678;51.336;12.406;2023-07-16T13:56:13;5.10;;;1.98;;
24517;SDS011;12678;51.336;12.406;2023-07-16T13:58:39;5.50;;;2.10;;
24517;SDS011;12678;51.336;12.406;2023-07-16T14:01:05;5.50;;;1.42;;
24517;SDS011;12678;51.336;12.406;2023-07-16T14:03:30;2.80;;;1.88;;
24517;SDS011;12678;51.336;12.406;2023-07-16T14:05:56;4.95;;;1.73;;
24517;SDS011;12678;51.336;12.406;2023-07-16T14:08:21;2.80;;;1.83;;
24517;SDS011;12678;51.336;12.406;2023-07-16T14:10:48;3.00;;;1.52;;
24517;SDS011;12678;51.336;12.406;2023-07-16T14:13:14;5.25;;;2.25;;
24517;SDS011;12678;51.336;12.406;2023-07-16T14:15:40;3.28;;;1.80;;
24517;SDS011;12678;51.336;12.406;2023-07-16T14:18:06;3.10;;;1.95;;
24517;SDS011;12678;51.336;12.406;2023-07-16T14:20:32;10.50;;;5.43;;
24517;SDS011;12678;51.336;12.406;2023-07-16T14:22:58;4.70;;;2.97;;
24517;SDS011;12678;51.336;12.406;2023-07-16T14:25:23;3.13;;;1.90;;
24517;SDS011;12678;51.336;12.406;2023-07-16T14:27:49;4.05;;;2.33;;
24517;SDS011;12678;51.336;12.406;2023-07-16T14:30:15;4.57;;;2.40;;
24517;SDS011;12678;51.336;12.406;2023-07-16T14:32:40;3.67;;;1.67;;
24517;SDS011;12678;51.336;12.406;2023-07-16T14:35:08;4.78;;;1.83;;
24517;SDS011;12678;51.336;12.406;2023-07-16T14:37:33;2.65;;;1.80;;
24517;SDS011;12678;51.336;12.406;2023-07-16T14:39:59;6.68;;;1.95;;
24517;SDS011;12678;51.336;12.406;2023-07-16T14:42:25;3.42;;;1.80;;
24517;SDS011;12678;51.336;12.406;2023-07-16T14:44:50;3.58;;;2.30;;